TAO weather

Liuting Airport
Qingdao, Shandong Province, China

Public forecast

Using degrees Celsius for public forecast. Weather courtesy of forecast.io.

METAR (pilot weather report)

Retrieved 2019/03/25 13:00 UTC (27 minutes ago):

ZSQD 251300Z 21001MPS 6000 NSC 12/04 Q1014 NOSIG

TAF (pilot weather forecast)

Forecast is more than 12 hours old.

Retrieved 2019/03/22 12:00 UTC (3 days ago):

TAF ZSQD 220905Z 2212/2312 18003MPS CAVOK TX12/2306Z TN02/2221Z BECMG 2300/2301 35006MPS